Pine Ridge, SD

6:25 AM MDT on October 24, 2014 (GMT -0600)
Pine Ridge | Change Station
CLOSE
Current Station
Airport
Location: Pine Ridge,
Elevation: 3330 ft
Nearby Weather Stations

Elev 3330 ft 43.02 °N, 102.52 °W | Updated 33 minutes ago

Clear
Clear
44 °F
Feels Like 41 °F
N
6
Wind Variable Wind from West

Today
High -- | Low -- °F
--% Chance of Precip.
Yesterday
High -- | Low -- °F
Precip. -- in
7:14 AM 5:53 PM
New Moon, 0% visible
Pressure 29.95 in
Visibility 10.0 miles
Clouds Clear
Windchill 41 °F
Dew Point 35 °F
Humidity 71%
Rainfall 0.00 in
Snow Depth Not available.
UV 0 out of 12
Pollen 2.50 out of 12
Air Quality Not available.
Flu Activity Sporadic
METAR KIEN 241152Z AUTO 26005KT 10SM CLR 07/02 A2995 RMK AO2 SLP140 T00670017 10067 20011 53002

More Conditions Fewer Conditions

Pressure 29.95 in
Visibility 10.0 miles
Clouds Clear
Windchill 41 °F
Dew Point 35 °F
Humidity 71%
Rainfall 0.00 in
Snow Depth Not available.
UV 0 out of 12
Pollen 2.50 out of 12
Air Quality Not available.
Flu Activity Sporadic
METAR KIEN 241152Z AUTO 26005KT 10SM CLR 07/02 A2995 RMK AO2 SLP140 T00670017 10067 20011 53002

More Conditions Fewer Conditions

10-Day Weather Forecast

Almanac

Astronomy

Oct. 24, 2014 Rise Set
Actual Time 7:14 AM MDT 5:53 PM MDT
Civil Twilight 6:45 AM MDT 6:22 PM MDT
Nautical Twilight 6:12 AM MDT 6:55 PM MDT
Astronomical Twilight 5:39 AM MDT 7:28 PM MDT
Moon 7:56 AM MDT 6:33 PM MDT
Length of Visible Light 11h 36m
Length of Day
10h 38m
Tomorrow will be 2m 43s shorter.
New Moon, 0% of the Moon is Illuminated
Today
New Moon
Oct 30
First Quarter
Nov 6
Full
Nov 14
Last Quarter
Nov 22
New

Today's Extremes

State Highs State Lows

Community

WunderPhotos

Upload Photos

1,764,533 photos uploaded!

Nearby

Snow Depth

Station Depth Elevation
North Rapid Creek 1 in 6130 ft
Blind Park 0 in 6890 ft

Earthquake Activity

City Distance Mag. Time & Date
No recent earthquake activity has been reported nearby.
Minimum magnitude displayed is 2.5.

Coastal Water Temperatures

Place Temperature
No Stations Reporting

Nearby Weather Stations